sensor_id;sensor_type;location;lat;lon;timestamp;P1;durP1;ratioP1;P2;durP2;ratioP2
42988;SDS011;28622;43.716;20.668;2022-07-18T00:02:22;2.75;;;1.13;;
42988;SDS011;28622;43.716;20.668;2022-07-18T00:04:51;1.63;;;1.33;;
42988;SDS011;28622;43.716;20.668;2022-07-18T00:07:17;6.15;;;1.10;;
42988;SDS011;28622;43.716;20.668;2022-07-18T00:09:43;1.30;;;0.73;;
42988;SDS011;28622;43.716;20.668;2022-07-18T00:12:10;2.33;;;1.00;;
42988;SDS011;28622;43.716;20.668;2022-07-18T00:14:37;1.45;;;1.10;;
42988;SDS011;28622;43.716;20.668;2022-07-18T00:17:03;1.27;;;0.68;;
42988;SDS011;28622;43.716;20.668;2022-07-18T00:19:30;1.42;;;0.93;;
42988;SDS011;28622;43.716;20.668;2022-07-18T00:21:56;1.38;;;0.70;;
42988;SDS011;28622;43.716;20.668;2022-07-18T00:24:22;1.35;;;0.63;;
42988;SDS011;28622;43.716;20.668;2022-07-18T00:26:48;1.48;;;0.82;;
42988;SDS011;28622;43.716;20.668;2022-07-18T00:29:14;2.88;;;1.10;;
42988;SDS011;28622;43.716;20.668;2022-07-18T00:31:40;1.83;;;0.73;;
42988;SDS011;28622;43.716;20.668;2022-07-18T00:34:06;1.25;;;0.70;;
42988;SDS011;28622;43.716;20.668;2022-07-18T00:36:32;0.80;;;0.40;;
42988;SDS011;28622;43.716;20.668;2022-07-18T00:38:57;1.80;;;0.73;;
42988;SDS011;28622;43.716;20.668;2022-07-18T00:41:23;1.63;;;0.75;;
42988;SDS011;28622;43.716;20.668;2022-07-18T00:43:50;0.68;;;0.57;;
42988;SDS011;28622;43.716;20.668;2022-07-18T00:46:20;1.55;;;0.85;;
42988;SDS011;28622;43.716;20.668;2022-07-18T00:48:47;2.08;;;0.75;;
42988;SDS011;28622;43.716;20.668;2022-07-18T00:51:13;2.35;;;0.90;;
42988;SDS011;28622;43.716;20.668;2022-07-18T00:53:39;1.38;;;0.88;;
42988;SDS011;28622;43.716;20.668;2022-07-18T00:56:04;1.40;;;0.90;;
42988;SDS011;28622;43.716;20.668;2022-07-18T00:58:31;0.85;;;0.65;;
42988;SDS011;28622;43.716;20.668;2022-07-18T01:00:57;2.08;;;0.93;;
42988;SDS011;28622;43.716;20.668;2022-07-18T01:03:41;1.85;;;0.75;;
42988;SDS011;28622;43.716;20.668;2022-07-18T01:06:08;1.75;;;0.75;;
42988;SDS011;28622;43.716;20.668;2022-07-18T01:08:34;5.18;;;0.95;;
42988;SDS011;28622;43.716;20.668;2022-07-18T01:11:00;1.20;;;0.75;;
42988;SDS011;28622;43.716;20.668;2022-07-18T01:13:26;1.45;;;0.90;;
42988;SDS011;28622;43.716;20.668;2022-07-18T01:15:52;1.67;;;0.80;;
42988;SDS011;28622;43.716;20.668;2022-07-18T01:18:18;1.02;;;0.90;;
42988;SDS011;28622;43.716;20.668;2022-07-18T01:20:43;4.20;;;1.73;;
42988;SDS011;28622;43.716;20.668;2022-07-18T01:23:09;1.40;;;0.70;;
42988;SDS011;28622;43.716;20.668;2022-07-18T01:25:35;1.88;;;0.63;;
42988;SDS011;28622;43.716;20.668;2022-07-18T01:28:01;1.77;;;1.00;;
42988;SDS011;28622;43.716;20.668;2022-07-18T01:30:27;1.92;;;0.95;;
42988;SDS011;28622;43.716;20.668;2022-07-18T01:32:58;0.60;;;0.60;;
42988;SDS011;28622;43.716;20.668;2022-07-18T01:35:26;0.70;;;0.60;;
42988;SDS011;28622;43.716;20.668;2022-07-18T01:37:54;1.30;;;0.77;;
42988;SDS011;28622;43.716;20.668;2022-07-18T01:40:21;1.20;;;0.60;;
42988;SDS011;28622;43.716;20.668;2022-07-18T01:42:48;1.55;;;1.05;;
42988;SDS011;28622;43.716;20.668;2022-07-18T01:45:16;8.85;;;1.00;;
42988;SDS011;28622;43.716;20.668;2022-07-18T01:47:43;1.13;;;0.88;;
42988;SDS011;28622;43.716;20.668;2022-07-18T01:50:10;1.27;;;0.68;;
42988;SDS011;28622;43.716;20.668;2022-07-18T01:52:36;2.17;;;0.63;;
42988;SDS011;28622;43.716;20.668;2022-07-18T01:55:03;1.30;;;0.80;;
42988;SDS011;28622;43.716;20.668;2022-07-18T01:57:31;1.17;;;0.80;;
42988;SDS011;28622;43.716;20.668;2022-07-18T01:59:56;0.70;;;0.65;;
42988;SDS011;28622;43.716;20.668;2022-07-18T02:02:22;1.60;;;0.80;;
42988;SDS011;28622;43.716;20.668;2022-07-18T02:04:48;2.30;;;0.85;;
42988;SDS011;28622;43.716;20.668;2022-07-18T02:07:33;2.47;;;1.08;;
42988;SDS011;28622;43.716;20.668;2022-07-18T02:10:14;2.13;;;1.00;;
42988;SDS011;28622;43.716;20.668;2022-07-18T02:12:46;3.92;;;0.80;;
42988;SDS011;28622;43.716;20.668;2022-07-18T02:15:13;2.03;;;1.08;;
42988;SDS011;28622;43.716;20.668;2022-07-18T02:17:40;2.30;;;0.95;;
42988;SDS011;28622;43.716;20.668;2022-07-18T02:20:08;1.60;;;1.00;;
42988;SDS011;28622;43.716;20.668;2022-07-18T02:22:35;1.20;;;0.65;;
42988;SDS011;28622;43.716;20.668;2022-07-18T02:25:01;3.33;;;1.48;;
42988;SDS011;28622;43.716;20.668;2022-07-18T02:27:28;3.08;;;1.10;;
42988;SDS011;28622;43.716;20.668;2022-07-18T02:29:54;2.22;;;0.98;;
42988;SDS011;28622;43.716;20.668;2022-07-18T02:32:19;2.40;;;1.05;;
42988;SDS011;28622;43.716;20.668;2022-07-18T02:34:48;6.60;;;1.40;;
42988;SDS011;28622;43.716;20.668;2022-07-18T02:37:14;6.32;;;0.60;;
42988;SDS011;28622;43.716;20.668;2022-07-18T02:39:40;1.27;;;0.80;;
42988;SDS011;28622;43.716;20.668;2022-07-18T02:42:06;2.55;;;0.75;;
42988;SDS011;28622;43.716;20.668;2022-07-18T02:44:32;1.73;;;0.80;;
42988;SDS011;28622;43.716;20.668;2022-07-18T02:46:58;1.55;;;0.73;;
42988;SDS011;28622;43.716;20.668;2022-07-18T02:49:24;3.42;;;0.80;;
42988;SDS011;28622;43.716;20.668;2022-07-18T02:52:00;0.57;;;0.57;;
42988;SDS011;28622;43.716;20.668;2022-07-18T02:54:31;0.70;;;0.70;;
42988;SDS011;28622;43.716;20.668;2022-07-18T02:56:58;2.17;;;1.08;;
42988;SDS011;28622;43.716;20.668;2022-07-18T02:59:25;1.65;;;0.68;;
42988;SDS011;28622;43.716;20.668;2022-07-18T03:01:52;1.27;;;0.82;;
42988;SDS011;28622;43.716;20.668;2022-07-18T03:04:18;1.25;;;0.47;;
42988;SDS011;28622;43.716;20.668;2022-07-18T03:06:45;1.33;;;0.73;;
42988;SDS011;28622;43.716;20.668;2022-07-18T03:09:11;0.57;;;0.52;;
42988;SDS011;28622;43.716;20.668;2022-07-18T03:11:37;0.73;;;0.50;;
42988;SDS011;28622;43.716;20.668;2022-07-18T03:14:03;5.07;;;1.10;;
42988;SDS011;28622;43.716;20.668;2022-07-18T03:16:29;1.90;;;0.65;;
42988;SDS011;28622;43.716;20.668;2022-07-18T03:18:55;0.70;;;0.68;;
42988;SDS011;28622;43.716;20.668;2022-07-18T03:21:21;2.08;;;0.80;;
42988;SDS011;28622;43.716;20.668;2022-07-18T03:23:47;1.35;;;0.63;;
42988;SDS011;28622;43.716;20.668;2022-07-18T03:26:12;1.42;;;0.75;;
42988;SDS011;28622;43.716;20.668;2022-07-18T03:28:38;2.50;;;0.85;;
42988;SDS011;28622;43.716;20.668;2022-07-18T03:31:04;0.70;;;0.70;;
42988;SDS011;28622;43.716;20.668;2022-07-18T03:33:30;0.75;;;0.60;;
42988;SDS011;28622;43.716;20.668;2022-07-18T03:35:56;2.33;;;1.02;;
42988;SDS011;28622;43.716;20.668;2022-07-18T03:38:21;1.08;;;0.57;;
42988;SDS011;28622;43.716;20.668;2022-07-18T03:40:48;0.80;;;0.50;;
42988;SDS011;28622;43.716;20.668;2022-07-18T03:43:14;1.17;;;0.93;;
42988;SDS011;28622;43.716;20.668;2022-07-18T03:45:39;3.67;;;1.27;;
42988;SDS011;28622;43.716;20.668;2022-07-18T03:48:05;0.63;;;0.60;;
42988;SDS011;28622;43.716;20.668;2022-07-18T03:50:31;1.08;;;0.88;;
42988;SDS011;28622;43.716;20.668;2022-07-18T03:52:59;1.55;;;0.70;;
42988;SDS011;28622;43.716;20.668;2022-07-18T03:55:25;1.38;;;1.10;;
42988;SDS011;28622;43.716;20.668;2022-07-18T03:57:50;0.68;;;0.65;;
42988;SDS011;28622;43.716;20.668;2022-07-18T04:00:17;0.68;;;0.55;;
42988;SDS011;28622;43.716;20.668;2022-07-18T04:02:44;1.88;;;0.82;;
42988;SDS011;28622;43.716;20.668;2022-07-18T04:05:12;1.10;;;0.70;;
42988;SDS011;28622;43.716;20.668;2022-07-18T04:07:38;3.35;;;0.80;;
42988;SDS011;28622;43.716;20.668;2022-07-18T04:10:05;1.48;;;0.60;;
42988;SDS011;28622;43.716;20.668;2022-07-18T04:12:32;1.23;;;0.65;;
42988;SDS011;28622;43.716;20.668;2022-07-18T04:14:57;1.38;;;0.45;;
42988;SDS011;28622;43.716;20.668;2022-07-18T04:17:23;1.85;;;0.73;;
42988;SDS011;28622;43.716;20.668;2022-07-18T04:19:49;1.15;;;0.57;;
42988;SDS011;28622;43.716;20.668;2022-07-18T04:22:16;1.58;;;0.85;;
42988;SDS011;28622;43.716;20.668;2022-07-18T04:24:41;6.70;;;1.00;;
42988;SDS011;28622;43.716;20.668;2022-07-18T04:27:07;1.60;;;0.93;;
42988;SDS011;28622;43.716;20.668;2022-07-18T04:29:33;3.00;;;1.02;;
42988;SDS011;28622;43.716;20.668;2022-07-18T04:32:01;1.77;;;1.10;;
42988;SDS011;28622;43.716;20.668;2022-07-18T04:34:27;2.08;;;1.25;;
42988;SDS011;28622;43.716;20.668;2022-07-18T04:36:52;1.23;;;0.85;;
42988;SDS011;28622;43.716;20.668;2022-07-18T04:39:18;5.25;;;0.75;;
42988;SDS011;28622;43.716;20.668;2022-07-18T04:41:44;1.77;;;0.90;;
42988;SDS011;28622;43.716;20.668;2022-07-18T04:44:12;1.00;;;0.70;;
42988;SDS011;28622;43.716;20.668;2022-07-18T04:46:38;1.55;;;1.00;;
42988;SDS011;28622;43.716;20.668;2022-07-18T04:49:04;1.63;;;0.77;;
42988;SDS011;28622;43.716;20.668;2022-07-18T04:51:30;0.55;;;0.43;;
42988;SDS011;28622;43.716;20.668;2022-07-18T04:53:56;2.05;;;1.00;;
42988;SDS011;28622;43.716;20.668;2022-07-18T04:56:22;1.08;;;0.60;;
42988;SDS011;28622;43.716;20.668;2022-07-18T04:58:48;1.30;;;0.82;;
42988;SDS011;28622;43.716;20.668;2022-07-18T05:01:13;1.70;;;1.08;;
42988;SDS011;28622;43.716;20.668;2022-07-18T05:03:39;0.75;;;0.73;;
42988;SDS011;28622;43.716;20.668;2022-07-18T05:06:05;0.88;;;0.68;;
42988;SDS011;28622;43.716;20.668;2022-07-18T05:08:31;2.25;;;1.15;;
42988;SDS011;28622;43.716;20.668;2022-07-18T05:10:57;1.70;;;0.90;;
42988;SDS011;28622;43.716;20.668;2022-07-18T05:13:22;0.90;;;0.57;;
42988;SDS011;28622;43.716;20.668;2022-07-18T05:15:48;0.90;;;0.60;;
42988;SDS011;28622;43.716;20.668;2022-07-18T05:18:14;1.92;;;0.90;;
42988;SDS011;28622;43.716;20.668;2022-07-18T05:20:40;0.75;;;0.65;;
42988;SDS011;28622;43.716;20.668;2022-07-18T05:23:06;1.80;;;0.60;;
42988;SDS011;28622;43.716;20.668;2022-07-18T05:25:32;1.13;;;0.63;;
42988;SDS011;28622;43.716;20.668;2022-07-18T05:27:57;2.78;;;0.80;;
42988;SDS011;28622;43.716;20.668;2022-07-18T05:30:23;3.72;;;0.63;;
42988;SDS011;28622;43.716;20.668;2022-07-18T05:32:49;4.60;;;0.70;;
42988;SDS011;28622;43.716;20.668;2022-07-18T05:35:17;1.33;;;0.82;;
42988;SDS011;28622;43.716;20.668;2022-07-18T05:37:43;1.25;;;0.57;;
42988;SDS011;28622;43.716;20.668;2022-07-18T05:40:10;1.50;;;0.80;;
42988;SDS011;28622;43.716;20.668;2022-07-18T05:42:37;1.75;;;0.70;;
42988;SDS011;28622;43.716;20.668;2022-07-18T05:45:03;1.85;;;1.20;;
42988;SDS011;28622;43.716;20.668;2022-07-18T05:47:30;1.48;;;0.57;;
42988;SDS011;28622;43.716;20.668;2022-07-18T05:49:56;2.45;;;0.60;;
42988;SDS011;28622;43.716;20.668;2022-07-18T05:52:21;2.17;;;0.65;;
42988;SDS011;28622;43.716;20.668;2022-07-18T05:54:47;1.35;;;0.50;;
42988;SDS011;28622;43.716;20.668;2022-07-18T05:57:13;0.52;;;0.40;;
42988;SDS011;28622;43.716;20.668;2022-07-18T05:59:39;0.60;;;0.30;;
42988;SDS011;28622;43.716;20.668;2022-07-18T06:02:04;8.07;;;0.98;;
42988;SDS011;28622;43.716;20.668;2022-07-18T06:04:30;1.10;;;0.52;;
42988;SDS011;28622;43.716;20.668;2022-07-18T06:06:56;0.85;;;0.50;;
42988;SDS011;28622;43.716;20.668;2022-07-18T06:09:22;0.55;;;0.30;;
42988;SDS011;28622;43.716;20.668;2022-07-18T06:11:48;1.67;;;0.50;;
42988;SDS011;28622;43.716;20.668;2022-07-18T06:14:14;1.35;;;0.50;;
42988;SDS011;28622;43.716;20.668;2022-07-18T06:16:39;3.75;;;1.00;;
42988;SDS011;28622;43.716;20.668;2022-07-18T06:19:06;1.40;;;0.90;;
42988;SDS011;28622;43.716;20.668;2022-07-18T06:21:32;3.05;;;0.40;;
42988;SDS011;28622;43.716;20.668;2022-07-18T06:23:58;5.53;;;0.65;;
42988;SDS011;28622;43.716;20.668;2022-07-18T06:26:24;0.38;;;0.38;;
42988;SDS011;28622;43.716;20.668;2022-07-18T06:28:49;0.73;;;0.40;;
42988;SDS011;28622;43.716;20.668;2022-07-18T06:31:15;2.20;;;0.65;;
42988;SDS011;28622;43.716;20.668;2022-07-18T06:33:42;0.85;;;0.40;;
42988;SDS011;28622;43.716;20.668;2022-07-18T06:36:08;3.58;;;0.60;;
42988;SDS011;28622;43.716;20.668;2022-07-18T06:38:36;0.30;;;0.30;;
42988;SDS011;28622;43.716;20.668;2022-07-18T06:41:04;0.50;;;0.40;;
42988;SDS011;28622;43.716;20.668;2022-07-18T06:43:30;3.20;;;0.70;;
42988;SDS011;28622;43.716;20.668;2022-07-18T06:45:56;2.38;;;0.60;;
42988;SDS011;28622;43.716;20.668;2022-07-18T06:48:23;1.00;;;0.45;;
42988;SDS011;28622;43.716;20.668;2022-07-18T06:50:49;1.10;;;0.50;;
42988;SDS011;28622;43.716;20.668;2022-07-18T06:53:15;1.67;;;0.40;;
42988;SDS011;28622;43.716;20.668;2022-07-18T06:55:40;1.60;;;0.68;;
42988;SDS011;28622;43.716;20.668;2022-07-18T06:58:06;1.38;;;0.55;;
42988;SDS011;28622;43.716;20.668;2022-07-18T07:00:32;7.03;;;0.50;;
42988;SDS011;28622;43.716;20.668;2022-07-18T07:02:58;4.30;;;0.47;;
42988;SDS011;28622;43.716;20.668;2022-07-18T07:05:24;0.77;;;0.40;;
42988;SDS011;28622;43.716;20.668;2022-07-18T07:07:50;0.65;;;0.45;;
42988;SDS011;28622;43.716;20.668;2022-07-18T07:10:16;0.82;;;0.50;;
42988;SDS011;28622;43.716;20.668;2022-07-18T07:12:44;0.90;;;0.45;;
42988;SDS011;28622;43.716;20.668;2022-07-18T07:15:14;2.67;;;0.70;;
42988;SDS011;28622;43.716;20.668;2022-07-18T07:17:43;2.15;;;0.57;;
42988;SDS011;28622;43.716;20.668;2022-07-18T07:20:09;0.93;;;0.40;;
42988;SDS011;28622;43.716;20.668;2022-07-18T07:22:45;1.48;;;0.50;;
42988;SDS011;28622;43.716;20.668;2022-07-18T07:25:12;2.13;;;0.35;;
42988;SDS011;28622;43.716;20.668;2022-07-18T07:27:39;2.40;;;0.47;;
42988;SDS011;28622;43.716;20.668;2022-07-18T07:30:05;2.83;;;0.60;;
42988;SDS011;28622;43.716;20.668;2022-07-18T07:32:40;0.52;;;0.32;;
42988;SDS011;28622;43.716;20.668;2022-07-18T07:35:08;2.83;;;0.73;;
42988;SDS011;28622;43.716;20.668;2022-07-18T07:37:40;0.85;;;0.60;;
42988;SDS011;28622;43.716;20.668;2022-07-18T07:40:07;0.35;;;0.28;;
42988;SDS011;28622;43.716;20.668;2022-07-18T07:42:34;2.55;;;0.60;;
42988;SDS011;28622;43.716;20.668;2022-07-18T07:45:00;2.55;;;1.30;;
42988;SDS011;28622;43.716;20.668;2022-07-18T07:47:26;4.57;;;0.35;;
42988;SDS011;28622;43.716;20.668;2022-07-18T07:49:54;1.10;;;0.47;;
42988;SDS011;28622;43.716;20.668;2022-07-18T07:52:20;0.85;;;0.40;;
42988;SDS011;28622;43.716;20.668;2022-07-18T07:54:46;1.27;;;0.75;;
42988;SDS011;28622;43.716;20.668;2022-07-18T07:57:12;1.60;;;0.50;;
42988;SDS011;28622;43.716;20.668;2022-07-18T07:59:38;1.88;;;0.75;;
42988;SDS011;28622;43.716;20.668;2022-07-18T08:02:04;1.50;;;0.65;;
42988;SDS011;28622;43.716;20.668;2022-07-18T08:04:29;2.70;;;0.80;;
42988;SDS011;28622;43.716;20.668;2022-07-18T08:06:55;0.65;;;0.50;;
42988;SDS011;28622;43.716;20.668;2022-07-18T08:09:21;1.95;;;0.40;;
42988;SDS011;28622;43.716;20.668;2022-07-18T08:11:47;2.33;;;0.70;;
42988;SDS011;28622;43.716;20.668;2022-07-18T08:14:13;1.38;;;0.57;;
42988;SDS011;28622;43.716;20.668;2022-07-18T08:16:39;1.30;;;0.38;;
42988;SDS011;28622;43.716;20.668;2022-07-18T08:19:04;0.40;;;0.30;;
42988;SDS011;28622;43.716;20.668;2022-07-18T08:21:31;1.17;;;0.55;;
42988;SDS011;28622;43.716;20.668;2022-07-18T08:23:57;2.20;;;0.52;;
42988;SDS011;28622;43.716;20.668;2022-07-18T08:26:22;1.50;;;0.57;;
42988;SDS011;28622;43.716;20.668;2022-07-18T08:28:48;0.10;;;0.10;;
42988;SDS011;28622;43.716;20.668;2022-07-18T08:31:14;2.95;;;0.40;;
42988;SDS011;28622;43.716;20.668;2022-07-18T08:33:40;0.20;;;0.20;;
42988;SDS011;28622;43.716;20.668;2022-07-18T08:36:05;0.28;;;0.13;;
42988;SDS011;28622;43.716;20.668;2022-07-18T08:38:33;1.23;;;0.30;;
42988;SDS011;28622;43.716;20.668;2022-07-18T08:40:59;0.20;;;0.20;;
42988;SDS011;28622;43.716;20.668;2022-07-18T08:43:26;1.58;;;0.50;;
42988;SDS011;28622;43.716;20.668;2022-07-18T08:45:57;0.80;;;0.30;;
42988;SDS011;28622;43.716;20.668;2022-07-18T08:48:28;0.03;;;0.03;;
42988;SDS011;28622;43.716;20.668;2022-07-18T08:50:55;0.75;;;0.20;;
42988;SDS011;28622;43.716;20.668;2022-07-18T08:53:21;0.20;;;0.20;;
42988;SDS011;28622;43.716;20.668;2022-07-18T08:55:47;0.95;;;0.32;;
42988;SDS011;28622;43.716;20.668;2022-07-18T08:58:13;0.30;;;0.20;;
42988;SDS011;28622;43.716;20.668;2022-07-18T09:00:40;0.30;;;0.20;;
42988;SDS011;28622;43.716;20.668;2022-07-18T09:03:06;0.65;;;0.20;;
42988;SDS011;28622;43.716;20.668;2022-07-18T09:05:32;2.40;;;0.40;;
42988;SDS011;28622;43.716;20.668;2022-07-18T09:13:21;0.90;;;0.20;;
42988;SDS011;28622;43.716;20.668;2022-07-18T09:16:02;0.10;;;0.10;;
42988;SDS011;28622;43.716;20.668;2022-07-18T09:18:32;2.97;;;0.22;;
42988;SDS011;28622;43.716;20.668;2022-07-18T09:21:01;0.65;;;0.15;;
42988;SDS011;28622;43.716;20.668;2022-07-18T09:23:33;0.43;;;0.30;;
42988;SDS011;28622;43.716;20.668;2022-07-18T09:26:00;0.28;;;0.20;;
42988;SDS011;28622;43.716;20.668;2022-07-18T09:28:28;0.22;;;0.10;;
42988;SDS011;28622;43.716;20.668;2022-07-18T09:31:01;0.98;;;0.30;;
42988;SDS011;28622;43.716;20.668;2022-07-18T09:33:52;0.38;;;0.20;;
42988;SDS011;28622;43.716;20.668;2022-07-18T09:36:22;0.30;;;0.20;;
42988;SDS011;28622;43.716;20.668;2022-07-18T09:38:47;0.68;;;0.30;;
42988;SDS011;28622;43.716;20.668;2022-07-18T09:41:14;2.63;;;0.20;;
42988;SDS011;28622;43.716;20.668;2022-07-18T09:43:40;0.22;;;0.22;;
42988;SDS011;28622;43.716;20.668;2022-07-18T09:46:06;0.47;;;0.20;;
42988;SDS011;28622;43.716;20.668;2022-07-18T09:48:32;0.57;;;0.40;;
42988;SDS011;28622;43.716;20.668;2022-07-18T09:51:00;1.92;;;0.30;;
42988;SDS011;28622;43.716;20.668;2022-07-18T09:53:35;0.40;;;0.30;;
42988;SDS011;28622;43.716;20.668;2022-07-18T09:56:12;0.25;;;0.20;;
42988;SDS011;28622;43.716;20.668;2022-07-18T09:58:51;0.30;;;0.20;;
42988;SDS011;28622;43.716;20.668;2022-07-18T10:01:21;1.00;;;0.35;;
42988;SDS011;28622;43.716;20.668;2022-07-18T10:03:48;0.65;;;0.25;;
42988;SDS011;28622;43.716;20.668;2022-07-18T10:06:14;0.95;;;0.20;;
42988;SDS011;28622;43.716;20.668;2022-07-18T10:08:41;0.65;;;0.25;;
42988;SDS011;28622;43.716;20.668;2022-07-18T10:11:07;0.63;;;0.30;;
42988;SDS011;28622;43.716;20.668;2022-07-18T10:13:34;0.63;;;0.17;;
42988;SDS011;28622;43.716;20.668;2022-07-18T10:16:02;1.02;;;0.20;;
42988;SDS011;28622;43.716;20.668;2022-07-18T10:18:29;0.70;;;0.50;;
42988;SDS011;28622;43.716;20.668;2022-07-18T10:20:57;1.40;;;0.60;;
42988;SDS011;28622;43.716;20.668;2022-07-18T10:23:31;1.58;;;0.40;;
42988;SDS011;28622;43.716;20.668;2022-07-18T10:26:14;0.52;;;0.20;;
42988;SDS011;28622;43.716;20.668;2022-07-18T10:32:00;2.00;;;0.30;;
42988;SDS011;28622;43.716;20.668;2022-07-18T10:34:34;0.40;;;0.25;;
42988;SDS011;28622;43.716;20.668;2022-07-18T10:44:38;0.43;;;0.20;;
42988;SDS011;28622;43.716;20.668;2022-07-18T10:57:30;0.20;;;0.20;;
42988;SDS011;28622;43.716;20.668;2022-07-18T11:03:02;4.53;;;0.40;;
42988;SDS011;28622;43.716;20.668;2022-07-18T11:23:54;0.85;;;0.10;;
42988;SDS011;28622;43.716;20.668;2022-07-18T11:26:27;0.70;;;0.30;;
42988;SDS011;28622;43.716;20.668;2022-07-18T11:31:22;0.75;;;0.30;;
42988;SDS011;28622;43.716;20.668;2022-07-18T11:33:49;0.40;;;0.30;;
42988;SDS011;28622;43.716;20.668;2022-07-18T11:36:16;0.20;;;0.10;;
42988;SDS011;28622;43.716;20.668;2022-07-18T11:38:48;0.70;;;0.32;;
42988;SDS011;28622;43.716;20.668;2022-07-18T11:41:15;0.20;;;0.10;;
42988;SDS011;28622;43.716;20.668;2022-07-18T11:43:42;0.30;;;0.20;;
42988;SDS011;28622;43.716;20.668;2022-07-18T11:46:10;0.13;;;0.03;;
42988;SDS011;28622;43.716;20.668;2022-07-18T11:48:38;0.35;;;0.22;;
42988;SDS011;28622;43.716;20.668;2022-07-18T11:51:11;0.20;;;0.20;;
42988;SDS011;28622;43.716;20.668;2022-07-18T11:53:42;0.38;;;0.17;;
42988;SDS011;28622;43.716;20.668;2022-07-18T11:56:09;0.75;;;0.22;;
42988;SDS011;28622;43.716;20.668;2022-07-18T11:58:35;0.43;;;0.30;;
42988;SDS011;28622;43.716;20.668;2022-07-18T12:01:03;6.60;;;0.50;;
42988;SDS011;28622;43.716;20.668;2022-07-18T12:03:29;0.65;;;0.30;;
42988;SDS011;28622;43.716;20.668;2022-07-18T12:05:56;0.20;;;0.20;;
42988;SDS011;28622;43.716;20.668;2022-07-18T12:16:22;0.10;;;0.10;;
42988;SDS011;28622;43.716;20.668;2022-07-18T12:19:09;0.38;;;0.30;;
42988;SDS011;28622;43.716;20.668;2022-07-18T12:21:38;0.38;;;0.20;;
42988;SDS011;28622;43.716;20.668;2022-07-18T12:27:07;0.85;;;0.20;;
42988;SDS011;28622;43.716;20.668;2022-07-18T12:32:21;1.33;;;0.20;;
42988;SDS011;28622;43.716;20.668;2022-07-18T12:34:56;0.35;;;0.15;;
42988;SDS011;28622;43.716;20.668;2022-07-18T12:37:26;0.30;;;0.10;;
42988;SDS011;28622;43.716;20.668;2022-07-18T12:39:57;0.20;;;0.17;;
42988;SDS011;28622;43.716;20.668;2022-07-18T12:42:28;0.50;;;0.30;;
42988;SDS011;28622;43.716;20.668;2022-07-18T12:44:56;0.68;;;0.43;;
42988;SDS011;28622;43.716;20.668;2022-07-18T12:47:22;0.40;;;0.25;;
42988;SDS011;28622;43.716;20.668;2022-07-18T12:49:48;0.38;;;0.28;;
42988;SDS011;28622;43.716;20.668;2022-07-18T12:52:14;1.35;;;0.40;;
42988;SDS011;28622;43.716;20.668;2022-07-18T12:54:40;1.20;;;0.30;;
42988;SDS011;28622;43.716;20.668;2022-07-18T12:57:05;1.85;;;0.40;;
42988;SDS011;28622;43.716;20.668;2022-07-18T12:59:31;0.20;;;0.10;;
42988;SDS011;28622;43.716;20.668;2022-07-18T13:01:57;0.13;;;0.13;;
42988;SDS011;28622;43.716;20.668;2022-07-18T13:04:23;0.13;;;0.10;;
42988;SDS011;28622;43.716;20.668;2022-07-18T13:06:48;1.10;;;0.40;;
42988;SDS011;28622;43.716;20.668;2022-07-18T13:09:14;0.43;;;0.10;;
42988;SDS011;28622;43.716;20.668;2022-07-18T13:11:40;0.20;;;0.20;;
42988;SDS011;28622;43.716;20.668;2022-07-18T13:14:08;0.57;;;0.30;;
42988;SDS011;28622;43.716;20.668;2022-07-18T13:16:34;0.57;;;0.20;;
42988;SDS011;28622;43.716;20.668;2022-07-18T13:18:59;0.30;;;0.20;;
42988;SDS011;28622;43.716;20.668;2022-07-18T13:21:25;0.32;;;0.22;;
42988;SDS011;28622;43.716;20.668;2022-07-18T13:23:51;1.02;;;0.32;;
42988;SDS011;28622;43.716;20.668;2022-07-18T13:26:17;0.32;;;0.15;;
42988;SDS011;28622;43.716;20.668;2022-07-18T13:28:43;0.80;;;0.20;;
42988;SDS011;28622;43.716;20.668;2022-07-18T13:31:09;0.10;;;0.10;;
42988;SDS011;28622;43.716;20.668;2022-07-18T13:33:35;0.10;;;0.10;;
42988;SDS011;28622;43.716;20.668;2022-07-18T13:36:01;4.20;;;0.55;;
42988;SDS011;28622;43.716;20.668;2022-07-18T13:38:27;0.30;;;0.20;;
42988;SDS011;28622;43.716;20.668;2022-07-18T13:40:52;0.98;;;0.35;;
42988;SDS011;28622;43.716;20.668;2022-07-18T13:43:18;0.30;;;0.22;;
42988;SDS011;28622;43.716;20.668;2022-07-18T13:45:44;0.25;;;0.17;;
42988;SDS011;28622;43.716;20.668;2022-07-18T13:48:10;0.30;;;0.20;;
42988;SDS011;28622;43.716;20.668;2022-07-18T13:50:36;0.38;;;0.22;;
42988;SDS011;28622;43.716;20.668;2022-07-18T13:53:02;0.22;;;0.10;;
42988;SDS011;28622;43.716;20.668;2022-07-18T13:55:28;0.50;;;0.35;;
42988;SDS011;28622;43.716;20.668;2022-07-18T13:57:53;0.15;;;0.10;;
42988;SDS011;28622;43.716;20.668;2022-07-18T14:00:19;0.30;;;0.30;;
42988;SDS011;28622;43.716;20.668;2022-07-18T14:02:45;0.43;;;0.20;;
42988;SDS011;28622;43.716;20.668;2022-07-18T14:05:11;0.68;;;0.45;;
42988;SDS011;28622;43.716;20.668;2022-07-18T14:07:36;4.00;;;0.50;;
42988;SDS011;28622;43.716;20.668;2022-07-18T14:10:02;0.60;;;0.40;;
42988;SDS011;28622;43.716;20.668;2022-07-18T14:12:28;0.95;;;0.55;;
42988;SDS011;28622;43.716;20.668;2022-07-18T14:14:54;0.30;;;0.30;;
42988;SDS011;28622;43.716;20.668;2022-07-18T14:17:20;0.93;;;0.45;;
42988;SDS011;28622;43.716;20.668;2022-07-18T14:19:45;0.10;;;0.10;;
42988;SDS011;28622;43.716;20.668;2022-07-18T14:22:11;0.25;;;0.17;;
42988;SDS011;28622;43.716;20.668;2022-07-18T14:24:37;0.35;;;0.30;;
42988;SDS011;28622;43.716;20.668;2022-07-18T14:27:03;2.47;;;0.30;;
42988;SDS011;28622;43.716;20.668;2022-07-18T14:29:29;0.30;;;0.28;;
42988;SDS011;28622;43.716;20.668;2022-07-18T14:31:55;0.77;;;0.30;;
42988;SDS011;28622;43.716;20.668;2022-07-18T14:34:21;0.70;;;0.28;;
42988;SDS011;28622;43.716;20.668;2022-07-18T14:36:46;1.17;;;0.40;;
42988;SDS011;28622;43.716;20.668;2022-07-18T14:39:12;0.20;;;0.20;;
42988;SDS011;28622;43.716;20.668;2022-07-18T14:41:38;0.30;;;0.20;;
42988;SDS011;28622;43.716;20.668;2022-07-18T14:44:04;1.80;;;0.40;;
42988;SDS011;28622;43.716;20.668;2022-07-18T14:46:29;1.00;;;0.50;;
42988;SDS011;28622;43.716;20.668;2022-07-18T14:48:55;0.50;;;0.30;;
42988;SDS011;28622;43.716;20.668;2022-07-18T14:51:21;0.80;;;0.47;;
42988;SDS011;28622;43.716;20.668;2022-07-18T14:53:46;0.75;;;0.57;;
42988;SDS011;28622;43.716;20.668;2022-07-18T14:56:12;0.57;;;0.30;;
42988;SDS011;28622;43.716;20.668;2022-07-18T14:58:39;0.70;;;0.30;;
42988;SDS011;28622;43.716;20.668;2022-07-18T15:01:05;2.92;;;0.60;;
42988;SDS011;28622;43.716;20.668;2022-07-18T15:03:31;0.32;;;0.30;;
42988;SDS011;28622;43.716;20.668;2022-07-18T15:05:56;1.17;;;0.43;;
42988;SDS011;28622;43.716;20.668;2022-07-18T15:08:22;7.82;;;0.40;;
42988;SDS011;28622;43.716;20.668;2022-07-18T15:10:48;0.73;;;0.35;;
42988;SDS011;28622;43.716;20.668;2022-07-18T15:13:14;0.52;;;0.25;;
42988;SDS011;28622;43.716;20.668;2022-07-18T15:15:39;0.63;;;0.40;;
42988;SDS011;28622;43.716;20.668;2022-07-18T15:18:05;0.50;;;0.30;;
42988;SDS011;28622;43.716;20.668;2022-07-18T15:20:31;0.50;;;0.40;;
42988;SDS011;28622;43.716;20.668;2022-07-18T15:22:57;0.50;;;0.20;;
42988;SDS011;28622;43.716;20.668;2022-07-18T15:25:23;1.85;;;0.43;;
42988;SDS011;28622;43.716;20.668;2022-07-18T15:27:48;0.57;;;0.30;;
42988;SDS011;28622;43.716;20.668;2022-07-18T15:30:14;0.30;;;0.20;;
42988;SDS011;28622;43.716;20.668;2022-07-18T15:32:40;1.10;;;0.50;;
42988;SDS011;28622;43.716;20.668;2022-07-18T15:35:06;0.40;;;0.30;;
42988;SDS011;28622;43.716;20.668;2022-07-18T15:37:32;0.30;;;0.25;;